createdAt,value
2023-11-13T00:01:50.717Z,100493.66
2023-11-13T00:04:17.171Z,100490.78
2023-11-13T00:06:43.631Z,100495.81
2023-11-13T00:09:10.048Z,100494.34
2023-11-13T00:11:36.459Z,100492.09
2023-11-13T00:14:02.887Z,100497.84
2023-11-13T00:16:29.375Z,100488.50
2023-11-13T00:18:57.147Z,100496.34
2023-11-13T00:21:23.621Z,100502.03
2023-11-13T00:23:50.070Z,100502.69
2023-11-13T00:26:16.986Z,100499.16
2023-11-13T00:28:51.091Z,100504.16
2023-11-13T00:31:17.662Z,100507.69
2023-11-13T00:33:44.239Z,100505.56
2023-11-13T00:36:10.645Z,100501.19
2023-11-13T00:38:37.036Z,100504.72
2023-11-13T00:41:03.818Z,100503.25
2023-11-13T00:43:30.266Z,100494.63
2023-11-13T00:45:56.791Z,100496.03
2023-11-13T00:48:23.260Z,100496.03
2023-11-13T00:50:49.651Z,100495.25
2023-11-13T00:53:16.158Z,100501.78
2023-11-13T00:55:42.554Z,100491.63
2023-11-13T00:58:09.004Z,100488.75
2023-11-13T01:00:35.578Z,100491.56
2023-11-13T01:03:02.317Z,100494.44
2023-11-13T01:05:28.850Z,100485.06
2023-11-13T01:07:55.291Z,100485.06
2023-11-13T01:10:22.792Z,100482.84
2023-11-13T01:12:49.233Z,100477.13
2023-11-13T01:15:15.642Z,100478.50
2023-11-13T01:17:43.135Z,100474.16
2023-11-13T01:20:09.823Z,100469.88
2023-11-13T01:22:36.248Z,100468.41
2023-11-13T01:25:02.648Z,100477.66
2023-11-13T01:27:29.261Z,100477.03
2023-11-13T01:29:55.690Z,100481.28
2023-11-13T01:32:22.188Z,100488.41
2023-11-13T01:34:48.651Z,100485.53
2023-11-13T01:37:15.669Z,100484.13
2023-11-13T01:39:43.087Z,100484.81
2023-11-13T01:42:09.491Z,100481.19
2023-11-13T01:44:35.915Z,100479.72
2023-11-13T01:47:02.364Z,100480.44
2023-11-13T01:49:28.775Z,100481.19
2023-11-13T01:51:55.806Z,100471.19
2023-11-13T01:54:22.473Z,100463.94
2023-11-13T01:56:48.870Z,100467.50
2023-11-13T01:59:15.304Z,100475.38
2023-11-13T02:01:41.752Z,100472.50
2023-11-13T02:04:08.246Z,100478.16
2023-11-13T02:06:34.659Z,100455.91
2023-11-13T02:09:01.079Z,100453.78
2023-11-13T02:11:27.505Z,100449.44
2023-11-13T02:13:54.114Z,100450.06
2023-11-13T02:16:20.780Z,100455.81
2023-11-13T02:18:47.275Z,100461.56
2023-11-13T02:21:13.688Z,100459.44
2023-11-13T02:23:40.106Z,100458.69
2023-11-13T02:26:15.628Z,100469.53
2023-11-13T02:28:42.259Z,100479.53
2023-11-13T02:31:08.748Z,100479.53
2023-11-13T02:33:35.156Z,100478.16
2023-11-13T02:36:01.540Z,100484.53
2023-11-13T02:38:27.908Z,100486.78
2023-11-13T02:40:54.341Z,100489.63
2023-11-13T02:43:20.762Z,100492.50
2023-11-13T02:45:47.176Z,100487.50
2023-11-13T02:48:13.787Z,100486.84
2023-11-13T02:50:41.227Z,100481.19
2023-11-13T02:53:07.640Z,100468.22
2023-11-13T02:55:34.026Z,100462.47
2023-11-13T02:58:00.431Z,100461.75
2023-11-13T03:00:26.883Z,100456.00
2023-11-13T03:02:53.426Z,100462.47
2023-11-13T03:05:19.905Z,100461.00
2023-11-13T03:07:46.311Z,100468.22
2023-11-13T03:10:12.997Z,100467.50
2023-11-13T03:12:40.430Z,100479.72
2023-11-13T03:15:07.057Z,100478.25
2023-11-13T03:17:33.923Z,100466.00
2023-11-13T03:20:00.432Z,100474.53
2023-11-13T03:22:27.806Z,100475.28
2023-11-13T03:24:54.276Z,100476.75
2023-11-13T03:27:20.815Z,100476.75
2023-11-13T03:29:47.249Z,100475.28
2023-11-13T03:32:13.865Z,100483.91
2023-11-13T03:34:41.969Z,100481.03
2023-11-13T03:37:08.442Z,100496.75
2023-11-13T03:39:34.842Z,100472.31
2023-11-13T03:42:01.221Z,100480.94
2023-11-13T03:44:27.643Z,100478.06
2023-11-13T03:46:54.155Z,100467.31
2023-11-13T03:49:20.622Z,100468.03
2023-11-13T03:51:47.849Z,100457.28
2023-11-13T03:54:14.260Z,100463.03
2023-11-13T03:56:41.285Z,100476.75
2023-11-13T03:59:08.409Z,100485.47
2023-11-13T04:01:34.838Z,100479.72
2023-11-13T04:04:01.431Z,100479.81
2023-11-13T04:06:27.870Z,100477.66
2023-11-13T04:08:54.292Z,100476.94
2023-11-13T04:11:20.683Z,100483.41
2023-11-13T04:13:47.851Z,100482.69
2023-11-13T04:16:15.535Z,100477.66
2023-11-13T04:18:42.272Z,100471.91
2023-11-13T04:21:08.812Z,100469.78
2023-11-13T04:23:35.234Z,100468.41
2023-11-13T04:26:01.621Z,100467.66
2023-11-13T04:28:32.173Z,100468.41
2023-11-13T04:30:58.784Z,100475.63
2023-11-13T04:33:25.213Z,100479.91
2023-11-13T04:35:51.672Z,100485.72
2023-11-13T04:38:18.174Z,100482.09
2023-11-13T04:40:46.141Z,100488.59
2023-11-13T04:43:13.040Z,100488.59
2023-11-13T04:45:40.611Z,100487.09
2023-11-13T04:48:07.226Z,100484.97
2023-11-13T04:50:33.917Z,100492.22
2023-11-13T04:53:00.369Z,100484.31
2023-11-13T04:55:26.806Z,100483.59
2023-11-13T04:57:53.232Z,100490.06
2023-11-13T05:00:19.696Z,100492.94
2023-11-13T05:02:46.326Z,100490.16
2023-11-13T05:05:13.121Z,100500.19
2023-11-13T05:07:40.026Z,100497.31
2023-11-13T05:10:07.105Z,100497.31
2023-11-13T05:12:33.548Z,100500.19
2023-11-13T05:14:59.972Z,100513.13
2023-11-13T05:17:26.597Z,100510.28
2023-11-13T05:19:53.045Z,100507.41
2023-11-13T05:22:19.721Z,100505.25
2023-11-13T05:24:46.180Z,100510.38
2023-11-13T05:27:14.245Z,100508.25
2023-11-13T05:29:41.152Z,100506.09
2023-11-13T05:32:07.640Z,100496.03
2023-11-13T05:34:34.169Z,100488.75
2023-11-13T05:37:00.659Z,100485.81
2023-11-13T05:39:27.068Z,100481.00
2023-11-13T05:41:53.449Z,100486.00
2023-11-13T05:44:19.845Z,100484.53
2023-11-13T05:46:46.311Z,100486.00
2023-11-13T05:49:13.453Z,100492.50
2023-11-13T05:51:40.222Z,100494.72
2023-11-13T05:54:06.616Z,100490.47
2023-11-13T05:56:33.160Z,100488.97
2023-11-13T05:58:59.541Z,100484.72
2023-11-13T06:01:32.285Z,100481.84
2023-11-13T06:03:59.545Z,100499.06
2023-11-13T06:06:26.550Z,100496.22
2023-11-13T06:08:52.975Z,100510.56
2023-11-13T06:11:20.533Z,100518.16
2023-11-13T06:13:47.584Z,100510.72
2023-11-13T06:16:14.117Z,100519.88
2023-11-13T06:18:51.266Z,100524.50
2023-11-13T06:21:19.255Z,100521.19
2023-11-13T06:23:45.639Z,100529.97
2023-11-13T06:26:13.728Z,100530.25
2023-11-13T06:28:40.263Z,100524.00
2023-11-13T06:31:06.830Z,100522.03
2023-11-13T06:33:33.282Z,100517.59
2023-11-13T06:35:59.686Z,100510.53
2023-11-13T06:38:26.094Z,100511.31
2023-11-13T06:40:52.494Z,100498.31
2023-11-13T06:43:20.432Z,100494.78
2023-11-13T06:45:46.891Z,100509.34
2023-11-13T06:48:13.315Z,100510.91
2023-11-13T06:50:39.723Z,100505.88
2023-11-13T06:53:06.135Z,100508.09
2023-11-13T06:55:33.766Z,100507.38
2023-11-13T06:58:00.283Z,100510.97
2023-11-13T07:00:26.700Z,100509.75
2023-11-13T07:02:53.272Z,100502.03
2023-11-13T07:05:20.711Z,100489.72
2023-11-13T07:07:48.900Z,100495.94
2023-11-13T07:10:15.377Z,100495.81
2023-11-13T07:12:41.838Z,100500.78
2023-11-13T07:15:08.290Z,100500.78
2023-11-13T07:17:34.714Z,100480.00
2023-11-13T07:20:01.224Z,100494.31
2023-11-13T07:22:29.344Z,100494.22
2023-11-13T07:24:56.248Z,100502.75
2023-11-13T07:27:22.848Z,100501.38
2023-11-13T07:29:50.622Z,100491.50
2023-11-13T07:32:17.264Z,100480.59
2023-11-13T07:34:43.702Z,100482.63
2023-11-13T07:37:10.147Z,100478.94
2023-11-13T07:39:36.569Z,100479.44
2023-11-13T07:42:04.224Z,100473.59
2023-11-13T07:44:30.650Z,100480.81
2023-11-13T07:46:57.145Z,100483.63
2023-11-13T07:49:23.668Z,100496.44
2023-11-13T07:51:50.092Z,100492.03
2023-11-13T07:54:16.476Z,100493.50
2023-11-13T07:56:42.859Z,100492.47
2023-11-13T07:59:12.815Z,100491.38
2023-11-13T08:01:39.438Z,100487.03
2023-11-13T08:04:08.516Z,100484.84
2023-11-13T08:06:35.081Z,100466.06
2023-11-13T08:09:09.052Z,100465.56
2023-11-13T08:11:36.030Z,100473.19
2023-11-13T08:14:02.836Z,100464.22
2023-11-13T08:16:29.322Z,100469.81
2023-11-13T08:18:57.812Z,100466.44
2023-11-13T08:21:24.290Z,100469.56
2023-11-13T08:23:50.679Z,100470.47
2023-11-13T08:26:17.073Z,100464.72
2023-11-13T08:28:45.523Z,100475.06
2023-11-13T08:31:17.036Z,100464.34
2023-11-13T08:33:43.710Z,100472.91
2023-11-13T08:36:12.522Z,100467.88
2023-11-13T08:38:38.930Z,100465.75
2023-11-13T08:41:05.435Z,100472.25
2023-11-13T08:43:33.503Z,100468.28
2023-11-13T08:46:02.856Z,100467.69
2023-11-13T08:48:29.690Z,100470.34
2023-11-13T08:51:00.506Z,100462.03
2023-11-13T08:53:29.564Z,100469.97
2023-11-13T08:55:57.832Z,100459.47
2023-11-13T08:58:24.395Z,100461.28
2023-11-13T09:00:50.838Z,100465.72
2023-11-13T09:03:18.093Z,100454.72
2023-11-13T09:05:44.591Z,100452.06
2023-11-13T09:08:11.030Z,100454.81
2023-11-13T09:10:37.759Z,100450.69
2023-11-13T09:13:04.314Z,100453.31
2023-11-13T09:15:31.938Z,100447.22
2023-11-13T09:18:02.341Z,100441.56
2023-11-13T09:20:28.865Z,100446.06
2023-11-13T09:22:55.242Z,100450.38
2023-11-13T09:25:23.007Z,100448.34
2023-11-13T09:27:50.050Z,100439.91
2023-11-13T09:30:19.395Z,100457.47
2023-11-13T09:32:50.197Z,100447.41
2023-11-13T09:35:20.118Z,100450.44
2023-11-13T09:37:48.206Z,100444.19
2023-11-13T09:40:18.410Z,100443.88
2023-11-13T09:42:45.141Z,100434.75
2023-11-13T09:45:13.885Z,100428.00
2023-11-13T09:47:41.805Z,100443.19
2023-11-13T09:50:16.579Z,100432.50
2023-11-13T09:52:47.113Z,100426.81
2023-11-13T09:55:16.235Z,100426.91
2023-11-13T09:57:42.689Z,100429.13
2023-11-13T10:00:17.918Z,100418.88
2023-11-13T10:02:45.362Z,100425.38
2023-11-13T10:05:13.452Z,100426.19
2023-11-13T10:07:41.748Z,100414.75
2023-11-13T10:10:08.277Z,100420.50
2023-11-13T10:12:34.755Z,100415.59
2023-11-13T10:15:09.521Z,100409.28
2023-11-13T10:17:47.893Z,100406.69
2023-11-13T10:20:18.332Z,100406.84
2023-11-13T10:22:45.823Z,100400.94
2023-11-13T10:25:12.830Z,100393.03
2023-11-13T10:27:41.256Z,100388.13
2023-11-13T10:30:07.706Z,100384.75
2023-11-13T10:32:34.137Z,100375.81
2023-11-13T10:35:00.556Z,100369.97
2023-11-13T10:37:27.107Z,100371.97
2023-11-13T10:39:53.514Z,100361.03
2023-11-13T10:42:24.430Z,100359.56
2023-11-13T10:44:52.357Z,100353.81
2023-11-13T10:47:24.295Z,100343.78
2023-11-13T10:49:51.501Z,100336.56
2023-11-13T10:52:18.323Z,100331.53
2023-11-13T10:54:49.427Z,100329.47
2023-11-13T10:57:17.175Z,100323.66
2023-11-13T10:59:43.762Z,100327.25
2023-11-13T11:02:13.458Z,100327.84
2023-11-13T11:04:43.923Z,100317.81
2023-11-13T11:07:10.697Z,100310.59
2023-11-13T11:09:37.982Z,100304.13
2023-11-13T11:12:04.645Z,100302.63
2023-11-13T11:14:35.018Z,100302.56
2023-11-13T11:17:06.739Z,100307.56
2023-11-13T11:19:36.161Z,100303.22
2023-11-13T11:22:07.093Z,100308.97
2023-11-13T11:24:45.606Z,100309.03
2023-11-13T11:27:12.026Z,100313.41
2023-11-13T11:29:38.889Z,100299.09
2023-11-13T11:32:14.555Z,100299.09
2023-11-13T11:34:43.183Z,100294.81
2023-11-13T11:37:10.200Z,100289.06
2023-11-13T11:39:47.188Z,100286.91
2023-11-13T11:42:20.329Z,100289.78
2023-11-13T11:44:47.554Z,100277.56
2023-11-13T11:47:29.737Z,100271.81
2023-11-13T11:49:57.343Z,100266.06
2023-11-13T11:52:39.483Z,100252.41
2023-11-13T11:55:06.017Z,100248.81
2023-11-13T11:57:32.432Z,100247.41
2023-11-13T12:00:01.887Z,100240.25
2023-11-13T12:02:40.199Z,100237.44
2023-11-13T12:05:08.983Z,100238.19
2023-11-13T12:07:35.681Z,100223.16
2023-11-13T12:10:11.097Z,100211.56
2023-11-13T12:12:42.765Z,100200.16
2023-11-13T12:15:09.310Z,100191.53
2023-11-13T12:17:36.124Z,100198.66
2023-11-13T12:20:13.525Z,100201.53
2023-11-13T12:22:44.618Z,100197.28
2023-11-13T12:25:11.866Z,100205.16
2023-11-13T12:27:41.473Z,100207.28
2023-11-13T12:30:25.300Z,100191.44
2023-11-13T12:32:54.742Z,100187.09
2023-11-13T12:35:21.757Z,100174.91
2023-11-13T12:37:48.874Z,100165.56
2023-11-13T12:40:17.894Z,100154.13
2023-11-13T12:42:44.411Z,100149.84
2023-11-13T12:45:14.057Z,100147.78
2023-11-13T12:47:44.096Z,100128.41
2023-11-13T12:50:13.018Z,100124.03
2023-11-13T12:52:39.621Z,100116.81
2023-11-13T12:55:12.107Z,100113.22
2023-11-13T12:57:39.825Z,100111.06
2023-11-13T13:00:06.514Z,100101.63
2023-11-13T13:02:34.883Z,100111.06
2023-11-13T13:05:03.319Z,100086.56
2023-11-13T13:07:31.619Z,100077.88
2023-11-13T13:09:58.041Z,100074.19
2023-11-13T13:12:24.439Z,100072.00
2023-11-13T13:14:53.264Z,100077.00
2023-11-13T13:17:22.857Z,100075.53
2023-11-13T13:19:49.529Z,100071.94
2023-11-13T13:22:15.935Z,100056.84
2023-11-13T13:24:42.330Z,100046.94
2023-11-13T13:27:10.747Z,100039.44
2023-11-13T13:29:37.934Z,100038.94
2023-11-13T13:32:06.478Z,100037.38
2023-11-13T13:34:32.969Z,100038.34
2023-11-13T13:36:59.675Z,100025.31
2023-11-13T13:39:26.076Z,100027.03
2023-11-13T13:41:52.867Z,100021.44
2023-11-13T13:44:19.342Z,100009.44
2023-11-13T13:46:45.854Z,100001.44
2023-11-13T13:49:12.379Z,100007.41
2023-11-13T13:51:39.074Z,100001.63
2023-11-13T13:54:08.159Z,99992.47
2023-11-13T13:56:35.980Z,99985.66
2023-11-13T13:59:04.126Z,99976.78
2023-11-13T14:01:30.622Z,99959.56
2023-11-13T14:03:57.196Z,99966.13
2023-11-13T14:06:23.759Z,99953.81
2023-11-13T14:08:50.181Z,99958.44
2023-11-13T14:11:20.004Z,99939.94
2023-11-13T14:13:47.792Z,99955.69
2023-11-13T14:16:15.412Z,99943.72
2023-11-13T14:18:43.032Z,99947.94
2023-11-13T14:21:10.309Z,99941.63
2023-11-13T14:23:37.551Z,99949.00
2023-11-13T14:26:04.114Z,99936.44
2023-11-13T14:28:32.171Z,99910.47
2023-11-13T14:30:58.712Z,99916.34
2023-11-13T14:33:25.210Z,99902.41
2023-11-13T14:35:52.132Z,99900.88
2023-11-13T14:38:18.893Z,99887.72
2023-11-13T14:40:45.357Z,99885.81
2023-11-13T14:43:11.822Z,99894.81
2023-11-13T14:45:39.609Z,99884.91
2023-11-13T14:48:06.775Z,99895.19
2023-11-13T14:50:33.498Z,99881.72
2023-11-13T14:52:59.954Z,99878.19
2023-11-13T14:55:27.518Z,99871.09
2023-11-13T14:57:54.198Z,99868.16
2023-11-13T15:00:24.763Z,99863.03
2023-11-13T15:02:51.655Z,99852.88
2023-11-13T15:05:18.074Z,99852.50
2023-11-13T15:07:44.613Z,99844.78
2023-11-13T15:10:13.630Z,99832.56
2023-11-13T15:12:40.941Z,99828.97
2023-11-13T15:15:09.166Z,99811.25
2023-11-13T15:17:37.839Z,99804.69
2023-11-13T15:20:11.540Z,99801.31
2023-11-13T15:23:00.525Z,99818.72
2023-11-13T15:25:26.498Z,99813.03
2023-11-13T15:27:52.920Z,99798.69
2023-11-13T15:30:21.148Z,99783.75
2023-11-13T15:32:47.797Z,99770.91
2023-11-13T15:35:14.321Z,99749.38
2023-11-13T15:37:40.967Z,99739.81
2023-11-13T15:40:07.708Z,99722.44
2023-11-13T15:42:34.169Z,99704.13
2023-11-13T15:45:00.742Z,99686.66
2023-11-13T15:47:27.637Z,99696.72
2023-11-13T15:49:54.442Z,99694.72
2023-11-13T15:52:22.340Z,99691.06
2023-11-13T15:54:49.011Z,99676.72
2023-11-13T15:57:15.416Z,99663.22
2023-11-13T15:59:41.945Z,99664.16
2023-11-13T16:02:08.631Z,99669.81
2023-11-13T16:04:35.119Z,99660.03
2023-11-13T16:07:02.589Z,99657.97
2023-11-13T16:09:29.218Z,99648.72
2023-11-13T16:11:55.673Z,99638.63
2023-11-13T16:14:22.076Z,99631.50
2023-11-13T16:16:48.691Z,99630.38
2023-11-13T16:19:16.201Z,99605.91
2023-11-13T16:21:42.909Z,99610.19
2023-11-13T16:24:09.338Z,99619.00
2023-11-13T16:26:36.593Z,99619.63
2023-11-13T16:29:05.879Z,99620.22
2023-11-13T16:31:32.536Z,99624.47
2023-11-13T16:33:59.041Z,99619.44
2023-11-13T16:36:25.838Z,99623.78
2023-11-13T16:38:52.410Z,99594.50
2023-11-13T16:41:24.902Z,99567.91
2023-11-13T16:43:51.560Z,99562.91
2023-11-13T16:46:18.017Z,99567.38
2023-11-13T16:48:46.413Z,99563.03
2023-11-13T16:51:13.299Z,99556.59
2023-11-13T16:53:40.046Z,99560.03
2023-11-13T16:56:07.067Z,99562.97
2023-11-13T16:58:33.511Z,99585.16
2023-11-13T17:00:59.995Z,99593.13
2023-11-13T17:03:26.718Z,99614.03
2023-11-13T17:05:53.374Z,99593.00
2023-11-13T17:08:19.785Z,99551.53
2023-11-13T17:10:46.354Z,99516.41
2023-11-13T17:13:14.696Z,99502.00
2023-11-13T17:15:44.145Z,99496.28
2023-11-13T17:18:10.758Z,99461.81
2023-11-13T17:20:40.817Z,99467.63
2023-11-13T17:23:07.908Z,99459.72
2023-11-13T17:25:34.520Z,99440.22
2023-11-13T17:28:00.942Z,99423.88
2023-11-13T17:30:27.378Z,99435.00
2023-11-13T17:32:53.823Z,99421.97
2023-11-13T17:35:21.384Z,99414.72
2023-11-13T17:37:49.529Z,99411.81
2023-11-13T17:40:18.382Z,99416.09
2023-11-13T17:42:44.846Z,99400.25
2023-11-13T17:45:11.505Z,99398.88
2023-11-13T17:47:38.007Z,99385.94
2023-11-13T17:50:05.058Z,99375.88
2023-11-13T17:52:31.991Z,99360.09
2023-11-13T17:54:58.428Z,99357.19
2023-11-13T17:57:24.841Z,99339.19
2023-11-13T17:59:51.340Z,99334.84
2023-11-13T18:02:17.869Z,99311.16
2023-11-13T18:04:44.394Z,99303.97
2023-11-13T18:07:10.837Z,99283.09
2023-11-13T18:09:37.638Z,99288.84
2023-11-13T18:12:04.531Z,99290.91
2023-11-13T18:14:31.487Z,99289.47
2023-11-13T18:16:57.994Z,99308.31
2023-11-13T18:19:24.597Z,99299.63
2023-11-13T18:21:51.791Z,99293.88
2023-11-13T18:24:19.516Z,99269.41
2023-11-13T18:26:45.927Z,99264.31
2023-11-13T18:29:12.392Z,99246.41
2023-11-13T18:31:38.927Z,99236.34
2023-11-13T18:34:06.791Z,99250.66
2023-11-13T18:36:34.391Z,99261.38
2023-11-13T18:39:00.806Z,99255.00
2023-11-13T18:41:27.270Z,99252.97
2023-11-13T18:43:53.735Z,99260.97
2023-11-13T18:46:22.064Z,99286.25
2023-11-13T18:48:48.518Z,99282.72
2023-11-13T18:51:17.423Z,99292.81
2023-11-13T18:53:44.153Z,99301.47
2023-11-13T18:56:12.649Z,99305.06
2023-11-13T18:58:41.851Z,99279.19
2023-11-13T19:01:11.141Z,99251.06
2023-11-13T19:03:37.732Z,99260.78
2023-11-13T19:06:06.777Z,99281.53
2023-11-13T19:08:37.677Z,99264.88
2023-11-13T19:11:04.715Z,99269.25
2023-11-13T19:13:31.158Z,99262.00
2023-11-13T19:16:00.403Z,99257.66
2023-11-13T19:18:26.821Z,99258.38
2023-11-13T19:20:53.210Z,99247.63
2023-11-13T19:23:19.630Z,99212.53
2023-11-13T19:25:47.418Z,99190.31
2023-11-13T19:28:15.591Z,99170.06
2023-11-13T19:30:42.019Z,99147.00
2023-11-13T19:33:08.498Z,99155.63
2023-11-13T19:35:36.648Z,99144.03
2023-11-13T19:38:03.216Z,99142.75
2023-11-13T19:40:29.762Z,99144.13
2023-11-13T19:42:56.275Z,99143.31
2023-11-13T19:45:22.760Z,99138.97
2023-11-13T19:47:49.238Z,99132.31
2023-11-13T19:50:15.709Z,99117.66
2023-11-13T19:52:47.699Z,99111.94
2023-11-13T19:55:14.688Z,99119.03
2023-11-13T19:57:42.534Z,99145.59
2023-11-13T20:00:11.216Z,99147.00
2023-11-13T20:02:42.448Z,99132.56
2023-11-13T20:05:09.829Z,99160.59
2023-11-13T20:07:37.238Z,99177.09
2023-11-13T20:10:03.825Z,99175.69
2023-11-13T20:12:30.216Z,99183.53
2023-11-13T20:14:56.743Z,99175.63
2023-11-13T20:17:24.857Z,99182.06
2023-11-13T20:19:51.969Z,99179.19
2023-11-13T20:22:22.028Z,99168.41
2023-11-13T20:24:49.114Z,99169.84
2023-11-13T20:27:16.539Z,99175.59
2023-11-13T20:29:45.001Z,99165.53
2023-11-13T20:32:11.488Z,99167.00
2023-11-13T20:34:38.281Z,99171.31
2023-11-13T20:37:07.061Z,99171.38
2023-11-13T20:39:33.503Z,99161.34
2023-11-13T20:42:00.835Z,99178.59
2023-11-13T20:44:27.663Z,99164.22
2023-11-13T20:46:54.636Z,99174.25
2023-11-13T20:49:22.663Z,99179.22
2023-11-13T20:51:49.588Z,99171.00
2023-11-13T20:54:16.012Z,99164.97
2023-11-13T20:56:42.418Z,99175.28
2023-11-13T20:59:08.940Z,99182.38
2023-11-13T21:01:35.400Z,99176.69
2023-11-13T21:04:01.868Z,99186.59
2023-11-13T21:06:28.267Z,99191.38
2023-11-13T21:08:54.772Z,99174.75
2023-11-13T21:11:21.213Z,99173.25
2023-11-13T21:13:47.786Z,99192.31
2023-11-13T21:16:14.326Z,99179.50
2023-11-13T21:18:40.954Z,99199.50
2023-11-13T21:21:07.905Z,99202.25
2023-11-13T21:23:34.461Z,99190.50
2023-11-13T21:26:03.604Z,99201.97
2023-11-13T21:28:30.049Z,99206.31
2023-11-13T21:30:56.528Z,99213.47
2023-11-13T21:33:23.084Z,99223.50
2023-11-13T21:35:49.555Z,99219.16
2023-11-13T21:38:15.963Z,99217.72
2023-11-13T21:40:44.621Z,99222.06
2023-11-13T21:43:11.148Z,99219.16
2023-11-13T21:45:38.642Z,99228.53
2023-11-13T21:48:05.186Z,99222.78
2023-11-13T21:50:31.646Z,99223.59
2023-11-13T21:52:58.089Z,99227.75
2023-11-13T21:55:25.972Z,99231.25
2023-11-13T21:57:52.467Z,99234.91
2023-11-13T22:00:18.867Z,99232.03
2023-11-13T22:02:45.609Z,99239.97
2023-11-13T22:05:12.209Z,99237.88
2023-11-13T22:07:41.976Z,99242.19
2023-11-13T22:10:09.068Z,99241.50
2023-11-13T22:12:36.122Z,99247.97
2023-11-13T22:15:10.352Z,99249.41
2023-11-13T22:17:38.858Z,99262.31
2023-11-13T22:20:05.817Z,99252.97
2023-11-13T22:22:32.310Z,99260.88
2023-11-13T22:25:01.800Z,99260.84
2023-11-13T22:27:28.183Z,99265.84
2023-11-13T22:29:55.342Z,99266.56
2023-11-13T22:32:22.308Z,99260.06
2023-11-13T22:34:48.804Z,99262.22
2023-11-13T22:37:15.284Z,99255.22
2023-11-13T22:39:41.684Z,99255.13
2023-11-13T22:42:08.241Z,99256.47
2023-11-13T22:44:34.874Z,99267.91
2023-11-13T22:47:01.461Z,99272.16
2023-11-13T22:49:27.966Z,99269.97
2023-11-13T22:51:54.758Z,99273.56
2023-11-13T22:54:21.155Z,99277.84
2023-11-13T22:56:47.597Z,99284.97
2023-11-13T22:59:14.140Z,99277.75
2023-11-13T23:01:41.705Z,99284.94
2023-11-13T23:04:09.035Z,99288.50
2023-11-13T23:06:35.468Z,99300.72
2023-11-13T23:09:01.893Z,99304.94
2023-11-13T23:11:28.345Z,99304.22
2023-11-13T23:13:56.978Z,99302.03
2023-11-13T23:16:23.715Z,99296.22
2023-11-13T23:18:50.225Z,99294.78
2023-11-13T23:21:16.681Z,99307.72
2023-11-13T23:23:43.094Z,99303.38
2023-11-13T23:26:10.332Z,99297.56
2023-11-13T23:28:36.747Z,99300.41
2023-11-13T23:31:03.427Z,99301.09
2023-11-13T23:33:29.842Z,99301.75
2023-11-13T23:35:56.229Z,99303.91
2023-11-13T23:38:22.610Z,99300.28
2023-11-13T23:40:49.521Z,99304.59
2023-11-13T23:43:17.121Z,99306.69
2023-11-13T23:45:43.556Z,99309.56
2023-11-13T23:48:14.359Z,99313.84
2023-11-13T23:50:43.687Z,99314.56
2023-11-13T23:53:11.291Z,99316.69
2023-11-13T23:55:37.744Z,99314.50
2023-11-13T23:58:04.278Z,99321.69
